sensor_id;sensor_type;location;lat;lon;timestamp;temperature;humidity
23291;DHT22;11814;44.686;10.842;2023-02-28T00:01:01;5.40;99.90
23291;DHT22;11814;44.686;10.842;2023-02-28T00:03:26;5.40;99.90
23291;DHT22;11814;44.686;10.842;2023-02-28T00:05:52;5.40;99.90
23291;DHT22;11814;44.686;10.842;2023-02-28T00:08:18;5.40;99.90
23291;DHT22;11814;44.686;10.842;2023-02-28T00:10:44;5.50;99.90
23291;DHT22;11814;44.686;10.842;2023-02-28T00:13:09;5.50;99.90
23291;DHT22;11814;44.686;10.842;2023-02-28T00:15:36;5.50;99.90
23291;DHT22;11814;44.686;10.842;2023-02-28T00:18:02;5.50;99.90
23291;DHT22;11814;44.686;10.842;2023-02-28T00:20:28;5.50;99.90
23291;DHT22;11814;44.686;10.842;2023-02-28T00:22:55;5.50;99.90
23291;DHT22;11814;44.686;10.842;2023-02-28T00:25:23;5.50;99.90
23291;DHT22;11814;44.686;10.842;2023-02-28T00:27:50;5.60;99.90
23291;DHT22;11814;44.686;10.842;2023-02-28T00:30:18;5.50;99.90
23291;DHT22;11814;44.686;10.842;2023-02-28T00:32:44;5.50;99.90
23291;DHT22;11814;44.686;10.842;2023-02-28T00:35:11;5.50;99.90
23291;DHT22;11814;44.686;10.842;2023-02-28T00:37:37;5.50;99.90
23291;DHT22;11814;44.686;10.842;2023-02-28T00:40:04;5.50;99.90
23291;DHT22;11814;44.686;10.842;2023-02-28T00:42:31;5.50;99.90
23291;DHT22;11814;44.686;10.842;2023-02-28T00:44:57;5.50;99.90
23291;DHT22;11814;44.686;10.842;2023-02-28T00:47:23;5.60;99.90
23291;DHT22;11814;44.686;10.842;2023-02-28T00:49:48;5.60;99.90
23291;DHT22;11814;44.686;10.842;2023-02-28T00:52:14;5.60;99.90
23291;DHT22;11814;44.686;10.842;2023-02-28T00:54:40;5.60;99.90
23291;DHT22;11814;44.686;10.842;2023-02-28T00:57:06;5.60;99.90
23291;DHT22;11814;44.686;10.842;2023-02-28T00:59:31;5.60;99.90
23291;DHT22;11814;44.686;10.842;2023-02-28T01:01:57;5.60;99.90
23291;DHT22;11814;44.686;10.842;2023-02-28T01:04:23;5.60;99.90
23291;DHT22;11814;44.686;10.842;2023-02-28T01:06:49;5.60;99.90
23291;DHT22;11814;44.686;10.842;2023-02-28T01:09:14;5.60;99.90
23291;DHT22;11814;44.686;10.842;2023-02-28T01:11:41;5.60;99.90
23291;DHT22;11814;44.686;10.842;2023-02-28T01:14:14;5.60;99.90
23291;DHT22;11814;44.686;10.842;2023-02-28T01:16:40;5.60;99.90
23291;DHT22;11814;44.686;10.842;2023-02-28T01:19:06;5.70;99.90
23291;DHT22;11814;44.686;10.842;2023-02-28T01:21:32;5.70;99.90
23291;DHT22;11814;44.686;10.842;2023-02-28T01:23:58;5.70;99.90
23291;DHT22;11814;44.686;10.842;2023-02-28T01:26:24;5.70;99.90
23291;DHT22;11814;44.686;10.842;2023-02-28T01:28:51;5.70;99.90
23291;DHT22;11814;44.686;10.842;2023-02-28T01:31:17;5.70;99.90
23291;DHT22;11814;44.686;10.842;2023-02-28T01:33:44;5.70;99.90
23291;DHT22;11814;44.686;10.842;2023-02-28T01:36:18;5.70;99.90
23291;DHT22;11814;44.686;10.842;2023-02-28T01:38:46;5.70;99.90
23291;DHT22;11814;44.686;10.842;2023-02-28T01:41:27;5.70;99.90
23291;DHT22;11814;44.686;10.842;2023-02-28T01:46:21;5.70;99.90
23291;DHT22;11814;44.686;10.842;2023-02-28T01:49:12;5.70;99.90
23291;DHT22;11814;44.686;10.842;2023-02-28T01:51:44;5.80;99.90
23291;DHT22;11814;44.686;10.842;2023-02-28T01:54:16;5.70;99.90
23291;DHT22;11814;44.686;10.842;2023-02-28T01:56:50;5.80;99.90
23291;DHT22;11814;44.686;10.842;2023-02-28T01:59:22;5.70;99.90
23291;DHT22;11814;44.686;10.842;2023-02-28T02:01:49;5.60;99.90
23291;DHT22;11814;44.686;10.842;2023-02-28T02:04:15;5.80;99.90
23291;DHT22;11814;44.686;10.842;2023-02-28T02:06:44;5.80;99.90
23291;DHT22;11814;44.686;10.842;2023-02-28T02:09:11;5.80;99.90
23291;DHT22;11814;44.686;10.842;2023-02-28T02:11:39;5.80;99.90
23291;DHT22;11814;44.686;10.842;2023-02-28T02:17:08;5.80;99.90
23291;DHT22;11814;44.686;10.842;2023-02-28T02:30:13;5.80;99.90
23291;DHT22;11814;44.686;10.842;2023-02-28T02:33:03;5.70;99.90
23291;DHT22;11814;44.686;10.842;2023-02-28T02:35:54;5.70;99.90
23291;DHT22;11814;44.686;10.842;2023-02-28T02:38:30;5.70;99.90
23291;DHT22;11814;44.686;10.842;2023-02-28T02:43:58;5.70;99.90
23291;DHT22;11814;44.686;10.842;2023-02-28T02:46:33;5.70;99.90
23291;DHT22;11814;44.686;10.842;2023-02-28T02:49:08;5.70;99.90
23291;DHT22;11814;44.686;10.842;2023-02-28T02:51:38;5.70;99.90
23291;DHT22;11814;44.686;10.842;2023-02-28T02:54:11;5.60;99.90
23291;DHT22;11814;44.686;10.842;2023-02-28T02:56:42;5.60;99.90
23291;DHT22;11814;44.686;10.842;2023-02-28T02:59:12;5.60;99.60
23291;DHT22;11814;44.686;10.842;2023-02-28T03:01:40;5.60;99.50
23291;DHT22;11814;44.686;10.842;2023-02-28T03:04:13;5.60;99.20
23291;DHT22;11814;44.686;10.842;2023-02-28T03:06:39;5.60;99.10
23291;DHT22;11814;44.686;10.842;2023-02-28T03:09:05;5.60;98.80
23291;DHT22;11814;44.686;10.842;2023-02-28T03:11:31;5.60;98.60
23291;DHT22;11814;44.686;10.842;2023-02-28T03:14:07;5.60;98.40
23291;DHT22;11814;44.686;10.842;2023-02-28T03:19:36;5.70;98.00
23291;DHT22;11814;44.686;10.842;2023-02-28T03:24:54;5.70;97.70
23291;DHT22;11814;44.686;10.842;2023-02-28T03:30:10;5.70;97.50
23291;DHT22;11814;44.686;10.842;2023-02-28T03:35:30;5.60;97.30
23291;DHT22;11814;44.686;10.842;2023-02-28T03:40:43;5.60;97.20
23291;DHT22;11814;44.686;10.842;2023-02-28T03:43:13;5.60;97.20
23291;DHT22;11814;44.686;10.842;2023-02-28T03:45:41;5.60;97.20
23291;DHT22;11814;44.686;10.842;2023-02-28T03:48:25;5.70;97.20
23291;DHT22;11814;44.686;10.842;2023-02-28T03:50:55;5.70;97.10
23291;DHT22;11814;44.686;10.842;2023-02-28T03:53:31;5.70;97.10
23291;DHT22;11814;44.686;10.842;2023-02-28T03:56:07;5.70;97.00
23291;DHT22;11814;44.686;10.842;2023-02-28T03:58:43;5.70;97.10
23291;DHT22;11814;44.686;10.842;2023-02-28T04:01:13;5.70;97.10
23291;DHT22;11814;44.686;10.842;2023-02-28T04:03:40;5.70;97.10
23291;DHT22;11814;44.686;10.842;2023-02-28T04:06:13;5.70;97.20
23291;DHT22;11814;44.686;10.842;2023-02-28T04:08:40;5.70;97.50
23291;DHT22;11814;44.686;10.842;2023-02-28T04:13:44;5.70;98.20
23291;DHT22;11814;44.686;10.842;2023-02-28T04:16:10;5.70;98.70
23291;DHT22;11814;44.686;10.842;2023-02-28T04:18:41;5.70;99.20
23291;DHT22;11814;44.686;10.842;2023-02-28T04:21:08;5.70;99.60
23291;DHT22;11814;44.686;10.842;2023-02-28T04:23:34;5.70;99.90
23291;DHT22;11814;44.686;10.842;2023-02-28T04:26:00;5.60;99.90
23291;DHT22;11814;44.686;10.842;2023-02-28T04:28:26;5.60;99.90
23291;DHT22;11814;44.686;10.842;2023-02-28T04:31:01;5.60;99.90
23291;DHT22;11814;44.686;10.842;2023-02-28T04:33:27;5.60;99.90
23291;DHT22;11814;44.686;10.842;2023-02-28T04:36:06;5.60;99.90
23291;DHT22;11814;44.686;10.842;2023-02-28T04:38:34;5.60;99.90
23291;DHT22;11814;44.686;10.842;2023-02-28T04:41:00;5.60;99.90
23291;DHT22;11814;44.686;10.842;2023-02-28T04:43:27;5.60;99.90
23291;DHT22;11814;44.686;10.842;2023-02-28T04:45:54;5.60;99.90
23291;DHT22;11814;44.686;10.842;2023-02-28T04:48:27;5.60;99.90
23291;DHT22;11814;44.686;10.842;2023-02-28T04:50:53;5.50;99.90
23291;DHT22;11814;44.686;10.842;2023-02-28T04:53:19;5.60;99.90
23291;DHT22;11814;44.686;10.842;2023-02-28T04:55:45;5.60;99.90
23291;DHT22;11814;44.686;10.842;2023-02-28T04:58:12;5.60;99.90
23291;DHT22;11814;44.686;10.842;2023-02-28T05:00:38;5.50;99.90
23291;DHT22;11814;44.686;10.842;2023-02-28T05:03:04;5.50;99.90
23291;DHT22;11814;44.686;10.842;2023-02-28T05:05:30;5.50;99.90
23291;DHT22;11814;44.686;10.842;2023-02-28T05:07:56;5.50;99.90
23291;DHT22;11814;44.686;10.842;2023-02-28T05:10:24;5.50;99.90
23291;DHT22;11814;44.686;10.842;2023-02-28T05:12:50;5.50;99.90
23291;DHT22;11814;44.686;10.842;2023-02-28T05:15:16;5.50;99.90
23291;DHT22;11814;44.686;10.842;2023-02-28T05:17:42;5.50;99.90
23291;DHT22;11814;44.686;10.842;2023-02-28T05:20:09;5.50;99.90
23291;DHT22;11814;44.686;10.842;2023-02-28T05:22:44;5.60;99.90
23291;DHT22;11814;44.686;10.842;2023-02-28T05:25:17;5.50;99.90
23291;DHT22;11814;44.686;10.842;2023-02-28T05:27:43;5.50;99.90
23291;DHT22;11814;44.686;10.842;2023-02-28T05:30:10;5.50;99.90
23291;DHT22;11814;44.686;10.842;2023-02-28T05:32:40;5.50;99.90
23291;DHT22;11814;44.686;10.842;2023-02-28T05:35:10;5.50;99.90
23291;DHT22;11814;44.686;10.842;2023-02-28T05:37:37;5.50;99.90
23291;DHT22;11814;44.686;10.842;2023-02-28T05:40:04;5.50;99.90
23291;DHT22;11814;44.686;10.842;2023-02-28T05:42:36;5.50;99.90
23291;DHT22;11814;44.686;10.842;2023-02-28T05:45:04;5.50;99.90
23291;DHT22;11814;44.686;10.842;2023-02-28T05:47:30;5.50;99.90
23291;DHT22;11814;44.686;10.842;2023-02-28T05:49:56;5.50;99.90
23291;DHT22;11814;44.686;10.842;2023-02-28T05:52:22;5.50;99.90
23291;DHT22;11814;44.686;10.842;2023-02-28T05:54:47;5.40;99.90
23291;DHT22;11814;44.686;10.842;2023-02-28T05:57:13;5.50;99.90
23291;DHT22;11814;44.686;10.842;2023-02-28T05:59:39;5.40;99.90
23291;DHT22;11814;44.686;10.842;2023-02-28T06:02:10;5.50;99.90
23291;DHT22;11814;44.686;10.842;2023-02-28T06:04:37;5.50;99.90
23291;DHT22;11814;44.686;10.842;2023-02-28T06:07:03;5.50;99.90
23291;DHT22;11814;44.686;10.842;2023-02-28T06:09:28;5.50;99.90
23291;DHT22;11814;44.686;10.842;2023-02-28T06:11:54;5.50;99.90
23291;DHT22;11814;44.686;10.842;2023-02-28T06:14:22;5.50;99.90
23291;DHT22;11814;44.686;10.842;2023-02-28T06:16:48;5.50;99.90
23291;DHT22;11814;44.686;10.842;2023-02-28T06:19:14;5.60;99.90
23291;DHT22;11814;44.686;10.842;2023-02-28T06:21:40;5.30;99.90
23291;DHT22;11814;44.686;10.842;2023-02-28T06:24:07;5.60;99.90
23291;DHT22;11814;44.686;10.842;2023-02-28T06:26:33;5.60;99.90
23291;DHT22;11814;44.686;10.842;2023-02-28T06:28:58;5.60;99.90
23291;DHT22;11814;44.686;10.842;2023-02-28T06:31:26;5.60;99.90
23291;DHT22;11814;44.686;10.842;2023-02-28T06:33:52;5.50;99.90
23291;DHT22;11814;44.686;10.842;2023-02-28T06:36:18;5.50;99.90
23291;DHT22;11814;44.686;10.842;2023-02-28T06:38:44;5.50;99.90
23291;DHT22;11814;44.686;10.842;2023-02-28T06:41:10;5.60;99.90
23291;DHT22;11814;44.686;10.842;2023-02-28T06:43:40;5.60;99.90
23291;DHT22;11814;44.686;10.842;2023-02-28T06:46:07;5.60;99.90
23291;DHT22;11814;44.686;10.842;2023-02-28T06:48:34;5.60;99.90
23291;DHT22;11814;44.686;10.842;2023-02-28T06:51:19;5.60;99.90
23291;DHT22;11814;44.686;10.842;2023-02-28T06:53:47;5.60;99.90
23291;DHT22;11814;44.686;10.842;2023-02-28T06:56:15;5.60;99.90
23291;DHT22;11814;44.686;10.842;2023-02-28T06:58:41;5.60;99.90
23291;DHT22;11814;44.686;10.842;2023-02-28T07:01:08;5.60;99.90
23291;DHT22;11814;44.686;10.842;2023-02-28T07:03:35;5.60;99.90
23291;DHT22;11814;44.686;10.842;2023-02-28T07:06:01;5.60;99.90
23291;DHT22;11814;44.686;10.842;2023-02-28T07:08:28;5.60;99.90
23291;DHT22;11814;44.686;10.842;2023-02-28T07:10:55;5.60;99.90
23291;DHT22;11814;44.686;10.842;2023-02-28T07:13:22;5.60;99.90
23291;DHT22;11814;44.686;10.842;2023-02-28T07:16:04;5.60;99.90
23291;DHT22;11814;44.686;10.842;2023-02-28T07:18:30;5.60;99.90
23291;DHT22;11814;44.686;10.842;2023-02-28T07:20:56;5.60;99.90
23291;DHT22;11814;44.686;10.842;2023-02-28T07:23:22;5.60;99.90
23291;DHT22;11814;44.686;10.842;2023-02-28T07:25:50;5.60;99.90
23291;DHT22;11814;44.686;10.842;2023-02-28T07:28:16;5.70;99.90
23291;DHT22;11814;44.686;10.842;2023-02-28T07:30:41;5.60;99.90
23291;DHT22;11814;44.686;10.842;2023-02-28T07:33:07;5.70;99.90
23291;DHT22;11814;44.686;10.842;2023-02-28T07:35:34;5.70;99.90
23291;DHT22;11814;44.686;10.842;2023-02-28T07:37:59;5.70;99.90
23291;DHT22;11814;44.686;10.842;2023-02-28T07:40:25;5.70;99.90
23291;DHT22;11814;44.686;10.842;2023-02-28T07:42:51;5.70;99.90
23291;DHT22;11814;44.686;10.842;2023-02-28T07:45:17;5.70;99.90
23291;DHT22;11814;44.686;10.842;2023-02-28T07:47:44;5.70;99.90
23291;DHT22;11814;44.686;10.842;2023-02-28T07:50:12;5.70;99.90
23291;DHT22;11814;44.686;10.842;2023-02-28T07:52:38;5.70;99.90
23291;DHT22;11814;44.686;10.842;2023-02-28T07:55:05;5.70;99.90
23291;DHT22;11814;44.686;10.842;2023-02-28T07:57:32;5.80;99.90
23291;DHT22;11814;44.686;10.842;2023-02-28T07:59:57;5.80;99.90
23291;DHT22;11814;44.686;10.842;2023-02-28T08:02:24;5.80;99.90
23291;DHT22;11814;44.686;10.842;2023-02-28T08:04:49;5.80;99.90
23291;DHT22;11814;44.686;10.842;2023-02-28T08:07:16;5.90;99.90
23291;DHT22;11814;44.686;10.842;2023-02-28T08:09:43;5.90;99.90
23291;DHT22;11814;44.686;10.842;2023-02-28T08:12:10;5.90;99.90
23291;DHT22;11814;44.686;10.842;2023-02-28T08:14:37;5.90;99.90
23291;DHT22;11814;44.686;10.842;2023-02-28T08:17:03;5.90;99.90
23291;DHT22;11814;44.686;10.842;2023-02-28T08:19:30;5.90;99.90
23291;DHT22;11814;44.686;10.842;2023-02-28T08:21:56;5.90;99.90
23291;DHT22;11814;44.686;10.842;2023-02-28T08:24:22;6.00;99.90
23291;DHT22;11814;44.686;10.842;2023-02-28T08:26:48;6.00;99.90
23291;DHT22;11814;44.686;10.842;2023-02-28T08:29:14;6.10;99.90
23291;DHT22;11814;44.686;10.842;2023-02-28T08:31:40;6.10;99.90
23291;DHT22;11814;44.686;10.842;2023-02-28T08:34:11;6.10;99.90
23291;DHT22;11814;44.686;10.842;2023-02-28T08:36:38;6.10;99.90
23291;DHT22;11814;44.686;10.842;2023-02-28T08:39:04;6.20;99.90
23291;DHT22;11814;44.686;10.842;2023-02-28T08:41:30;6.30;99.90
23291;DHT22;11814;44.686;10.842;2023-02-28T08:43:56;6.30;99.90
23291;DHT22;11814;44.686;10.842;2023-02-28T08:46:23;6.40;99.90
23291;DHT22;11814;44.686;10.842;2023-02-28T08:48:52;6.40;99.90
23291;DHT22;11814;44.686;10.842;2023-02-28T08:51:20;6.50;99.90
23291;DHT22;11814;44.686;10.842;2023-02-28T08:53:52;6.50;99.90
23291;DHT22;11814;44.686;10.842;2023-02-28T08:56:19;6.60;99.90
23291;DHT22;11814;44.686;10.842;2023-02-28T08:58:45;6.70;99.90
23291;DHT22;11814;44.686;10.842;2023-02-28T09:01:17;6.70;99.90
23291;DHT22;11814;44.686;10.842;2023-02-28T09:03:43;6.80;99.90
23291;DHT22;11814;44.686;10.842;2023-02-28T09:06:10;6.90;99.90
23291;DHT22;11814;44.686;10.842;2023-02-28T09:08:37;6.90;99.90
23291;DHT22;11814;44.686;10.842;2023-02-28T09:11:03;7.00;99.90
23291;DHT22;11814;44.686;10.842;2023-02-28T09:13:29;7.10;99.70
23291;DHT22;11814;44.686;10.842;2023-02-28T09:15:58;7.10;99.40
23291;DHT22;11814;44.686;10.842;2023-02-28T09:18:24;7.10;99.30
23291;DHT22;11814;44.686;10.842;2023-02-28T09:20:49;7.20;99.20
23291;DHT22;11814;44.686;10.842;2023-02-28T09:23:16;7.30;99.00
23291;DHT22;11814;44.686;10.842;2023-02-28T09:25:49;7.40;98.60
23291;DHT22;11814;44.686;10.842;2023-02-28T09:28:15;7.40;98.10
23291;DHT22;11814;44.686;10.842;2023-02-28T09:30:45;7.50;97.70
23291;DHT22;11814;44.686;10.842;2023-02-28T09:33:13;7.50;97.30
23291;DHT22;11814;44.686;10.842;2023-02-28T09:35:39;7.50;96.60
23291;DHT22;11814;44.686;10.842;2023-02-28T09:38:05;7.50;96.30
23291;DHT22;11814;44.686;10.842;2023-02-28T09:40:36;7.60;96.20
23291;DHT22;11814;44.686;10.842;2023-02-28T09:43:02;7.70;95.80
23291;DHT22;11814;44.686;10.842;2023-02-28T09:45:39;7.70;95.70
23291;DHT22;11814;44.686;10.842;2023-02-28T09:48:32;7.80;95.40
23291;DHT22;11814;44.686;10.842;2023-02-28T09:51:13;7.90;95.00
23291;DHT22;11814;44.686;10.842;2023-02-28T09:53:41;7.90;94.80
23291;DHT22;11814;44.686;10.842;2023-02-28T09:56:30;7.90;94.50
23291;DHT22;11814;44.686;10.842;2023-02-28T10:01:45;7.80;93.70
23291;DHT22;11814;44.686;10.842;2023-02-28T10:07:45;7.80;93.90
23291;DHT22;11814;44.686;10.842;2023-02-28T10:13:14;7.80;93.80
23291;DHT22;11814;44.686;10.842;2023-02-28T10:15:41;7.90;93.70
23291;DHT22;11814;44.686;10.842;2023-02-28T10:18:12;8.00;93.70
23291;DHT22;11814;44.686;10.842;2023-02-28T10:20:40;8.10;93.50
23291;DHT22;11814;44.686;10.842;2023-02-28T10:23:36;8.20;93.50
23291;DHT22;11814;44.686;10.842;2023-02-28T10:26:14;8.20;93.20
23291;DHT22;11814;44.686;10.842;2023-02-28T10:28:44;8.20;92.80
23291;DHT22;11814;44.686;10.842;2023-02-28T10:31:19;8.20;92.70
23291;DHT22;11814;44.686;10.842;2023-02-28T10:33:45;8.20;92.70
23291;DHT22;11814;44.686;10.842;2023-02-28T10:36:16;8.30;92.50
23291;DHT22;11814;44.686;10.842;2023-02-28T10:38:43;8.30;92.40
23291;DHT22;11814;44.686;10.842;2023-02-28T10:41:11;8.30;92.30
23291;DHT22;11814;44.686;10.842;2023-02-28T10:43:39;8.40;92.20
23291;DHT22;11814;44.686;10.842;2023-02-28T10:48:50;8.40;92.20
23291;DHT22;11814;44.686;10.842;2023-02-28T10:51:23;8.50;92.10
23291;DHT22;11814;44.686;10.842;2023-02-28T10:53:51;8.50;91.90
23291;DHT22;11814;44.686;10.842;2023-02-28T10:56:19;8.60;91.70
23291;DHT22;11814;44.686;10.842;2023-02-28T11:03:46;8.60;91.60
23291;DHT22;11814;44.686;10.842;2023-02-28T11:06:33;8.60;91.60
23291;DHT22;11814;44.686;10.842;2023-02-28T11:11:28;8.80;91.50
23291;DHT22;11814;44.686;10.842;2023-02-28T11:14:04;8.90;91.40
23291;DHT22;11814;44.686;10.842;2023-02-28T11:16:36;8.90;91.10
23291;DHT22;11814;44.686;10.842;2023-02-28T11:19:04;8.90;91.00
23291;DHT22;11814;44.686;10.842;2023-02-28T11:21:36;8.90;90.90
23291;DHT22;11814;44.686;10.842;2023-02-28T11:24:22;8.90;90.90
23291;DHT22;11814;44.686;10.842;2023-02-28T11:26:49;9.00;90.80
23291;DHT22;11814;44.686;10.842;2023-02-28T11:29:22;8.90;90.70
23291;DHT22;11814;44.686;10.842;2023-02-28T11:32:05;8.90;91.10
23291;DHT22;11814;44.686;10.842;2023-02-28T11:34:31;8.90;91.90
23291;DHT22;11814;44.686;10.842;2023-02-28T11:36:59;8.90;91.70
23291;DHT22;11814;44.686;10.842;2023-02-28T11:39:27;8.90;91.60
23291;DHT22;11814;44.686;10.842;2023-02-28T11:47:33;8.90;92.00
23291;DHT22;11814;44.686;10.842;2023-02-28T11:50:41;8.90;92.20
23291;DHT22;11814;44.686;10.842;2023-02-28T12:01:20;8.80;91.90
23291;DHT22;11814;44.686;10.842;2023-02-28T12:04:11;8.80;92.00
23291;DHT22;11814;44.686;10.842;2023-02-28T12:06:49;8.90;92.30
23291;DHT22;11814;44.686;10.842;2023-02-28T12:09:53;8.90;92.00
23291;DHT22;11814;44.686;10.842;2023-02-28T12:12:37;9.00;92.10
23291;DHT22;11814;44.686;10.842;2023-02-28T12:18:07;9.00;92.10
23291;DHT22;11814;44.686;10.842;2023-02-28T12:23:33;9.00;91.90
23291;DHT22;11814;44.686;10.842;2023-02-28T12:28:54;8.90;91.90
23291;DHT22;11814;44.686;10.842;2023-02-28T12:31:28;8.90;92.10
23291;DHT22;11814;44.686;10.842;2023-02-28T12:34:12;9.00;92.10
23291;DHT22;11814;44.686;10.842;2023-02-28T12:36:40;9.00;92.10
23291;DHT22;11814;44.686;10.842;2023-02-28T12:39:24;9.00;92.30
23291;DHT22;11814;44.686;10.842;2023-02-28T12:44:35;9.10;92.30
23291;DHT22;11814;44.686;10.842;2023-02-28T12:47:05;9.00;92.30
23291;DHT22;11814;44.686;10.842;2023-02-28T12:49:38;9.00;92.40
23291;DHT22;11814;44.686;10.842;2023-02-28T12:52:05;9.10;92.40
23291;DHT22;11814;44.686;10.842;2023-02-28T12:57:36;9.20;92.60
23291;DHT22;11814;44.686;10.842;2023-02-28T13:00:16;9.30;92.70
23291;DHT22;11814;44.686;10.842;2023-02-28T13:11:32;9.30;92.70
23291;DHT22;11814;44.686;10.842;2023-02-28T13:14:04;9.30;92.60
23291;DHT22;11814;44.686;10.842;2023-02-28T13:16:51;9.20;92.60
23291;DHT22;11814;44.686;10.842;2023-02-28T13:19:20;9.30;92.70
23291;DHT22;11814;44.686;10.842;2023-02-28T13:21:49;9.30;92.60
23291;DHT22;11814;44.686;10.842;2023-02-28T13:29:41;9.20;93.10
23291;DHT22;11814;44.686;10.842;2023-02-28T13:34:41;9.20;93.00
23291;DHT22;11814;44.686;10.842;2023-02-28T13:39:52;9.30;93.00
23291;DHT22;11814;44.686;10.842;2023-02-28T13:47:52;9.60;93.20
23291;DHT22;11814;44.686;10.842;2023-02-28T13:50:26;9.60;93.00
23291;DHT22;11814;44.686;10.842;2023-02-28T13:53:19;9.60;92.70
23291;DHT22;11814;44.686;10.842;2023-02-28T13:56:26;9.60;92.60
23291;DHT22;11814;44.686;10.842;2023-02-28T13:59:12;9.70;92.60
23291;DHT22;11814;44.686;10.842;2023-02-28T14:07:05;9.50;92.60
23291;DHT22;11814;44.686;10.842;2023-02-28T14:09:35;9.40;92.50
23291;DHT22;11814;44.686;10.842;2023-02-28T14:15:26;9.20;92.50
23291;DHT22;11814;44.686;10.842;2023-02-28T14:17:55;9.10;92.50
23291;DHT22;11814;44.686;10.842;2023-02-28T14:20:22;9.10;92.60
23291;DHT22;11814;44.686;10.842;2023-02-28T14:28:49;9.10;92.70
23291;DHT22;11814;44.686;10.842;2023-02-28T14:31:36;9.00;92.60
23291;DHT22;11814;44.686;10.842;2023-02-28T14:36:36;8.90;92.90
23291;DHT22;11814;44.686;10.842;2023-02-28T14:39:17;8.90;92.90
23291;DHT22;11814;44.686;10.842;2023-02-28T14:41:44;8.80;93.10
23291;DHT22;11814;44.686;10.842;2023-02-28T14:44:19;8.80;93.20
23291;DHT22;11814;44.686;10.842;2023-02-28T14:46:49;8.80;93.20
23291;DHT22;11814;44.686;10.842;2023-02-28T14:54:28;8.80;93.50
23291;DHT22;11814;44.686;10.842;2023-02-28T14:56:54;8.80;93.50
23291;DHT22;11814;44.686;10.842;2023-02-28T14:59:27;8.80;93.40
23291;DHT22;11814;44.686;10.842;2023-02-28T15:02:18;8.80;93.50
23291;DHT22;11814;44.686;10.842;2023-02-28T15:04:53;8.70;93.40
23291;DHT22;11814;44.686;10.842;2023-02-28T15:07:19;8.80;93.40
23291;DHT22;11814;44.686;10.842;2023-02-28T15:10:10;8.70;93.30
23291;DHT22;11814;44.686;10.842;2023-02-28T15:12:37;8.70;93.30
23291;DHT22;11814;44.686;10.842;2023-02-28T15:15:03;8.70;93.40
23291;DHT22;11814;44.686;10.842;2023-02-28T15:17:29;8.70;93.40
23291;DHT22;11814;44.686;10.842;2023-02-28T15:19:56;8.70;93.40
23291;DHT22;11814;44.686;10.842;2023-02-28T15:22:31;8.70;93.40
23291;DHT22;11814;44.686;10.842;2023-02-28T15:25:02;8.60;93.30
23291;DHT22;11814;44.686;10.842;2023-02-28T15:27:32;8.60;93.60
23291;DHT22;11814;44.686;10.842;2023-02-28T15:30:00;8.60;94.10
23291;DHT22;11814;44.686;10.842;2023-02-28T15:32:37;8.70;94.30
23291;DHT22;11814;44.686;10.842;2023-02-28T15:38:40;8.60;94.20
23291;DHT22;11814;44.686;10.842;2023-02-28T15:40:43;8.50;94.30
23291;DHT22;11814;44.686;10.842;2023-02-28T15:43:17;8.50;94.30
23291;DHT22;11814;44.686;10.842;2023-02-28T15:45:55;8.50;94.50
23291;DHT22;11814;44.686;10.842;2023-02-28T15:51:36;8.50;94.60
23291;DHT22;11814;44.686;10.842;2023-02-28T15:54:07;8.40;94.60
23291;DHT22;11814;44.686;10.842;2023-02-28T15:56:46;8.40;95.00
23291;DHT22;11814;44.686;10.842;2023-02-28T15:59:22;8.40;94.70
23291;DHT22;11814;44.686;10.842;2023-02-28T16:02:13;8.30;94.80
23291;DHT22;11814;44.686;10.842;2023-02-28T16:07:27;8.20;95.10
23291;DHT22;11814;44.686;10.842;2023-02-28T16:09:53;8.20;95.20
23291;DHT22;11814;44.686;10.842;2023-02-28T16:12:20;8.20;95.30
23291;DHT22;11814;44.686;10.842;2023-02-28T16:14:52;8.20;95.40
23291;DHT22;11814;44.686;10.842;2023-02-28T16:17:24;8.20;95.50
23291;DHT22;11814;44.686;10.842;2023-02-28T16:19:50;8.10;95.50
23291;DHT22;11814;44.686;10.842;2023-02-28T16:22:16;8.20;95.60
23291;DHT22;11814;44.686;10.842;2023-02-28T16:24:41;8.20;95.60
23291;DHT22;11814;44.686;10.842;2023-02-28T16:27:24;8.20;95.60
23291;DHT22;11814;44.686;10.842;2023-02-28T16:29:53;8.10;95.50
23291;DHT22;11814;44.686;10.842;2023-02-28T16:32:19;8.10;95.50
23291;DHT22;11814;44.686;10.842;2023-02-28T16:34:45;8.10;95.50
23291;DHT22;11814;44.686;10.842;2023-02-28T16:37:16;8.00;95.50
23291;DHT22;11814;44.686;10.842;2023-02-28T16:39:43;8.00;95.60
23291;DHT22;11814;44.686;10.842;2023-02-28T16:42:23;8.00;95.60
23291;DHT22;11814;44.686;10.842;2023-02-28T16:44:49;8.00;95.60
23291;DHT22;11814;44.686;10.842;2023-02-28T16:47:15;8.00;95.60
23291;DHT22;11814;44.686;10.842;2023-02-28T16:49:40;8.00;95.60
23291;DHT22;11814;44.686;10.842;2023-02-28T16:52:09;8.00;95.60
23291;DHT22;11814;44.686;10.842;2023-02-28T16:54:35;7.90;95.60
23291;DHT22;11814;44.686;10.842;2023-02-28T16:57:01;7.90;95.60
23291;DHT22;11814;44.686;10.842;2023-02-28T16:59:27;7.90;95.60
23291;DHT22;11814;44.686;10.842;2023-02-28T17:01:54;7.90;95.80
23291;DHT22;11814;44.686;10.842;2023-02-28T17:04:24;7.90;95.80
23291;DHT22;11814;44.686;10.842;2023-02-28T17:06:49;7.80;95.90
23291;DHT22;11814;44.686;10.842;2023-02-28T17:09:21;7.80;96.00
23291;DHT22;11814;44.686;10.842;2023-02-28T17:11:47;7.80;96.10
23291;DHT22;11814;44.686;10.842;2023-02-28T17:14:14;7.80;96.20
23291;DHT22;11814;44.686;10.842;2023-02-28T17:16:40;7.80;96.20
23291;DHT22;11814;44.686;10.842;2023-02-28T17:19:12;7.80;96.30
23291;DHT22;11814;44.686;10.842;2023-02-28T17:21:39;7.90;96.30
23291;DHT22;11814;44.686;10.842;2023-02-28T17:24:07;7.90;96.60
23291;DHT22;11814;44.686;10.842;2023-02-28T17:26:33;7.80;96.20
23291;DHT22;11814;44.686;10.842;2023-02-28T17:28:59;7.80;96.30
23291;DHT22;11814;44.686;10.842;2023-02-28T17:31:26;7.80;96.40
23291;DHT22;11814;44.686;10.842;2023-02-28T17:33:52;7.80;96.50
23291;DHT22;11814;44.686;10.842;2023-02-28T17:36:25;7.80;96.60
23291;DHT22;11814;44.686;10.842;2023-02-28T17:38:52;7.90;96.80
23291;DHT22;11814;44.686;10.842;2023-02-28T17:41:18;7.90;96.80
23291;DHT22;11814;44.686;10.842;2023-02-28T17:43:44;7.90;96.90
23291;DHT22;11814;44.686;10.842;2023-02-28T17:46:21;7.90;96.90
23291;DHT22;11814;44.686;10.842;2023-02-28T17:48:49;7.90;96.90
23291;DHT22;11814;44.686;10.842;2023-02-28T17:51:16;7.90;96.90
23291;DHT22;11814;44.686;10.842;2023-02-28T17:53:42;8.00;97.00
23291;DHT22;11814;44.686;10.842;2023-02-28T17:56:32;7.90;97.00
23291;DHT22;11814;44.686;10.842;2023-02-28T17:58:57;7.90;97.00
23291;DHT22;11814;44.686;10.842;2023-02-28T18:01:24;7.90;97.10
23291;DHT22;11814;44.686;10.842;2023-02-28T18:03:54;7.90;97.20
23291;DHT22;11814;44.686;10.842;2023-02-28T18:06:45;7.90;97.30